Time;durP1;ratioP1;P1;durP2;ratioP2;P2;SDS_P1;SDS_P2;PMS_P1;PMS_P2;Temp;Humidity;BMP_temperature;BMP_pressure;BME280_temperature;BME280_humidity;BME280_pressure;Samples;Min_cycle;Max_cycle;Signal;HPM_P1;HPM_P2
2021/09/05 00:01:44;;;;;;;17.60;11.20;;;;;;;13.93;100.00;101436.88;4990992;28;20221;-78
2021/09/05 00:04:10;;;;;;;16.47;11.40;;;;;;;13.93;100.00;101436.09;4976120;28;20233;-77
2021/09/05 00:06:35;;;;;;;18.10;12.00;;;;;;;13.91;100.00;101439.06;4973522;28;20373;-77
2021/09/05 00:09:01;;;;;;;17.53;12.17;;;;;;;13.86;100.00;101441.00;4975225;28;20366;-80
2021/09/05 00:11:26;;;;;;;19.80;12.63;;;;;;;13.87;100.00;101446.19;4974727;28;20217;-77
2021/09/05 00:13:54;;;;;;;19.30;13.37;;;;;;;13.90;100.00;101442.09;4970241;28;20185;-77
2021/09/05 00:16:23;;;;;;;18.00;12.30;;;;;;;13.94;100.00;101437.72;5008969;28;20282;-78
2021/09/05 00:18:49;;;;;;;20.07;12.40;;;;;;;14.01;100.00;101438.25;4959720;28;20332;-77
2021/09/05 00:21:14;;;;;;;18.60;11.77;;;;;;;14.07;100.00;101439.94;4974415;28;20229;-77
2021/09/05 00:23:40;;;;;;;17.30;11.70;;;;;;;14.00;100.00;101442.09;4991403;28;20263;-76
2021/09/05 00:26:05;;;;;;;21.10;12.50;;;;;;;14.01;100.00;101438.25;4974428;28;20244;-77
2021/09/05 00:28:34;;;;;;;17.50;12.30;;;;;;;14.08;100.00;101438.81;4990686;28;20703;-76
2021/09/05 00:31:00;;;;;;;19.70;12.43;;;;;;;14.10;100.00;101442.94;4974829;28;20284;-76
2021/09/05 00:33:28;;;;;;;15.73;11.07;;;;;;;14.14;100.00;101443.16;4990986;28;20666;-76
2021/09/05 00:35:54;;;;;;;17.43;12.33;;;;;;;14.12;100.00;101442.63;4958352;28;20220;-76
2021/09/05 00:38:23;;;;;;;19.20;13.00;;;;;;;14.01;100.00;101450.03;4955698;28;20218;-78
2021/09/05 00:40:48;;;;;;;20.47;13.43;;;;;;;14.07;100.00;101453.59;4974545;28;20231;-77
2021/09/05 00:43:14;;;;;;;21.03;12.60;;;;;;;14.09;100.00;101446.75;4982700;28;20650;-76
2021/09/05 00:45:39;;;;;;;17.20;12.53;;;;;;;14.01;100.00;101447.31;4957509;28;20226;-78
2021/09/05 00:48:07;;;;;;;18.03;12.23;;;;;;;14.13;100.00;101445.09;4948411;28;20210;-79
2021/09/05 00:50:35;;;;;;;18.07;12.33;;;;;;;14.04;100.00;101452.22;4955535;28;20230;-77
2021/09/05 00:53:04;;;;;;;21.07;12.67;;;;;;;14.04;100.00;101456.88;4979896;28;20190;-80
2021/09/05 00:55:34;;;;;;;19.63;12.87;;;;;;;14.04;100.00;101459.59;4975870;28;20790;-77
2021/09/05 00:58:03;;;;;;;22.07;12.77;;;;;;;13.98;100.00;101471.59;4970253;28;20185;-78
2021/09/05 01:00:31;;;;;;;22.57;13.87;;;;;;;14.02;100.00;101472.72;4980282;28;20217;-78
2021/09/05 01:02:57;;;;;;;18.43;12.60;;;;;;;14.01;100.00;101473.75;4982781;28;20190;-76
2021/09/05 01:05:25;;;;;;;20.67;12.87;;;;;;;13.88;100.00;101466.13;4962312;28;20188;-75
2021/09/05 01:07:54;;;;;;;21.17;13.03;;;;;;;13.98;100.00;101474.31;4967687;28;20272;-77
2021/09/05 01:10:23;;;;;;;20.13;12.33;;;;;;;14.03;100.00;101475.19;4960530;28;20210;-79
2021/09/05 01:12:51;;;;;;;19.47;12.87;;;;;;;14.06;100.00;101473.78;4985849;28;20565;-77
2021/09/05 01:15:19;;;;;;;21.97;12.80;;;;;;;14.15;100.00;101470.22;4962673;28;20199;-76
2021/09/05 01:17:44;;;;;;;21.30;13.27;;;;;;;14.13;100.00;101464.22;4929473;28;20182;-76
2021/09/05 01:20:33;;;;;;;21.20;13.00;;;;;;;14.14;100.00;101471.34;4960645;28;20224;-76
2021/09/05 01:23:21;;;;;;;21.53;12.90;;;;;;;14.15;100.00;101483.06;4993497;28;20271;-76
2021/09/05 01:26:12;;;;;;;20.00;13.50;;;;;;;14.09;100.00;101482.25;4969796;28;20249;-75
2021/09/05 01:29:04;;;;;;;20.57;13.00;;;;;;;14.02;100.00;101481.72;4977118;28;20206;-76
2021/09/05 01:31:52;;;;;;;19.83;13.40;;;;;;;14.05;100.00;101494.03;4974148;28;20233;-76
2021/09/05 01:34:47;;;;;;;19.23;12.90;;;;;;;14.02;100.00;101489.09;4963214;28;20194;-76
2021/09/05 01:37:32;;;;;;;18.67;13.50;;;;;;;14.07;100.00;101476.25;4979554;28;20224;-75
2021/09/05 01:40:20;;;;;;;21.60;13.83;;;;;;;14.04;100.00;101487.72;4993270;28;20730;-76
2021/09/05 01:43:06;;;;;;;19.73;13.47;;;;;;;13.98;100.00;101479.78;4980442;28;20244;-78
2021/09/05 01:46:01;;;;;;;18.43;13.20;;;;;;;13.97;100.00;101486.34;4961471;28;20411;-76
2021/09/05 01:48:47;;;;;;;21.67;13.70;;;;;;;13.88;100.00;101493.44;4960275;28;20714;-75
2021/09/05 01:51:35;;;;;;;21.03;14.50;;;;;;;13.84;100.00;101490.47;4966781;28;20226;-75
2021/09/05 01:54:32;;;;;;;23.30;14.67;;;;;;;13.97;100.00;101491.78;4941159;28;20855;-76
2021/09/05 01:57:33;;;;;;;21.67;14.47;;;;;;;13.98;100.00;101493.44;4978242;28;20930;-78
2021/09/05 02:00:28;;;;;;;23.13;14.20;;;;;;;14.06;100.00;101492.91;4961022;28;20238;-75
2021/09/05 02:03:05;;;;;;;25.50;15.43;;;;;;;14.10;100.00;101491.28;4960576;28;20644;-77
2021/09/05 02:05:49;;;;;;;21.90;14.63;;;;;;;14.09;100.00;101493.19;4979121;28;20221;-79
2021/09/05 02:08:49;;;;;;;23.47;15.50;;;;;;;14.07;100.00;101489.91;4986209;28;20209;-76
2021/09/05 02:11:40;;;;;;;24.67;16.33;;;;;;;13.95;100.00;101499.44;4982041;28;20276;-77
2021/09/05 02:14:38;;;;;;;24.40;15.97;;;;;;;14.04;100.00;101497.84;4979749;28;20192;-77
2021/09/05 02:17:25;;;;;;;22.33;15.13;;;;;;;14.23;100.00;101497.03;4971617;28;20367;-75
2021/09/05 02:20:11;;;;;;;24.97;15.07;;;;;;;14.16;100.00;101504.66;4995143;28;20240;-77
2021/09/05 02:22:59;;;;;;;21.57;14.53;;;;;;;14.40;100.00;101506.53;4978380;28;20690;-77
2021/09/05 02:25:43;;;;;;;24.53;14.50;;;;;;;14.52;100.00;101515.25;4959655;28;20237;-76
2021/09/05 02:28:37;;;;;;;20.53;14.23;;;;;;;14.30;100.00;101503.84;4950272;28;20238;-76
2021/09/05 02:31:32;;;;;;;22.60;15.13;;;;;;;14.22;100.00;101517.22;4945795;28;20712;-76
2021/09/05 02:34:18;;;;;;;20.43;14.57;;;;;;;14.23;100.00;101513.41;4992466;28;20228;-76
2021/09/05 02:37:03;;;;;;;22.60;14.50;;;;;;;14.21;100.00;101509.28;4992866;28;20229;-77
2021/09/05 02:39:57;;;;;;;21.23;14.27;;;;;;;14.23;100.00;101512.56;4979495;28;20213;-78
2021/09/05 02:42:52;;;;;;;23.10;14.13;;;;;;;14.35;100.00;101520.22;4983360;28;20225;-75
2021/09/05 02:45:36;;;;;;;23.10;14.43;;;;;;;14.33;100.00;101516.94;4993587;28;20232;-76
2021/09/05 02:48:27;;;;;;;20.07;13.23;;;;;;;14.45;100.00;101511.16;4991254;28;20229;-76
2021/09/05 02:51:21;;;;;;;22.27;13.63;;;;;;;14.50;100.00;101513.91;4970491;28;20234;-75
2021/09/05 02:54:06;;;;;;;21.93;13.20;;;;;;;14.37;100.00;101515.28;4948994;28;20190;-75
2021/09/05 02:57:05;;;;;;;18.70;12.70;;;;;;;14.41;100.00;101508.19;4979839;28;20225;-77
2021/09/05 02:59:55;;;;;;;18.73;13.10;;;;;;;14.46;100.00;101507.34;4975073;28;20257;-76
2021/09/05 03:02:51;;;;;;;19.83;13.73;;;;;;;14.26;100.00;101519.13;4961313;28;20234;-75
2021/09/05 03:05:37;;;;;;;18.53;13.93;;;;;;;14.22;100.00;101516.41;4971501;28;20225;-76
2021/09/05 03:08:19;;;;;;;17.37;13.20;;;;;;;14.31;100.00;101521.06;4964121;28;20225;-75
2021/09/05 03:11:03;;;;;;;17.63;12.90;;;;;;;14.33;100.00;101514.19;4977502;28;20337;-76
2021/09/05 03:14:07;;;;;;;17.97;12.97;;;;;;;14.31;100.00;101510.94;4966978;28;20221;-77
2021/09/05 03:16:55;;;;;;;17.80;13.03;;;;;;;14.20;100.00;101513.94;4991528;28;20757;-76
2021/09/05 03:19:39;;;;;;;21.33;13.87;;;;;;;14.12;100.00;101508.22;4979295;28;20208;-77
2021/09/05 03:22:42;;;;;;;20.13;13.23;;;;;;;14.23;100.00;101509.84;4979551;28;20224;-76
2021/09/05 03:25:23;;;;;;;19.43;13.33;;;;;;;14.17;100.00;101505.47;4977344;28;20192;-78
2021/09/05 03:28:09;;;;;;;16.50;12.37;;;;;;;14.01;100.00;101506.53;4994055;28;20245;-80
2021/09/05 03:30:53;;;;;;;18.97;12.40;;;;;;;14.19;100.00;101515.03;4991808;28;20237;-77
2021/09/05 03:33:40;;;;;;;17.07;12.60;;;;;;;14.20;100.00;101518.59;4978774;28;20332;-76
2021/09/05 03:36:26;;;;;;;17.83;12.93;;;;;;;14.21;100.00;101507.38;4972258;28;20222;-78
2021/09/05 03:39:02;;;;;;;19.53;12.60;;;;;;;14.21;100.00;101512.03;4942390;28;20277;-77
2021/09/05 03:42:04;;;;;;;16.50;12.17;;;;;;;14.09;100.00;101511.50;4976480;28;20235;-77
2021/09/05 03:44:42;;;;;;;19.27;12.90;;;;;;;13.95;100.00;101510.38;4975556;28;20188;-76
2021/09/05 03:47:31;;;;;;;22.20;13.10;;;;;;;13.92;100.00;101513.66;4992744;28;20284;-79
2021/09/05 03:50:14;;;;;;;20.77;12.90;;;;;;;13.97;100.00;101510.91;4991430;28;20205;-77
2021/09/05 03:52:44;;;;;;;19.57;12.47;;;;;;;13.89;100.00;101516.94;4977752;28;20209;-74
2021/09/05 03:55:16;;;;;;;17.40;12.17;;;;;;;13.95;100.00;101515.84;4983415;28;20181;-75
2021/09/05 03:57:47;;;;;;;19.40;12.90;;;;;;;14.02;100.00;101516.44;4990696;28;20246;-77
2021/09/05 04:00:14;;;;;;;18.13;13.03;;;;;;;14.12;100.00;101517.25;4986485;28;20194;-75
2021/09/05 04:02:46;;;;;;;18.73;12.70;;;;;;;14.10;100.00;101524.91;4981122;28;20178;-78
2021/09/05 04:05:14;;;;;;;16.80;11.97;;;;;;;14.22;100.00;101516.41;4978771;28;20193;-76
2021/09/05 04:07:43;;;;;;;15.43;11.43;;;;;;;14.24;100.00;101524.03;4965369;28;20186;-76
2021/09/05 04:10:10;;;;;;;18.77;12.50;;;;;;;14.20;100.00;101518.59;4983279;28;20217;-80
2021/09/05 04:12:44;;;;;;;19.23;12.33;;;;;;;14.10;100.00;101521.31;4976608;28;20185;-78
2021/09/05 04:15:10;;;;;;;17.07;11.77;;;;;;;14.23;100.00;101520.78;4980440;28;20635;-77
2021/09/05 04:17:40;;;;;;;15.20;11.93;;;;;;;14.20;100.00;101513.94;4998260;28;20635;-81
2021/09/05 04:20:08;;;;;;;15.73;11.30;;;;;;;14.23;100.00;101518.88;4976179;28;20198;-79
2021/09/05 04:22:34;;;;;;;16.07;11.87;;;;;;;13.87;100.00;101519.13;4995565;28;20254;-80
2021/09/05 04:25:03;;;;;;;20.30;12.37;;;;;;;13.75;100.00;101515.81;4996114;28;20189;-76
2021/09/05 04:27:28;;;;;;;18.47;12.03;;;;;;;13.71;100.00;101519.38;4979235;28;20226;-80
2021/09/05 04:29:54;;;;;;;19.40;12.80;;;;;;;13.76;100.00;101513.94;4979208;28;20229;-79
2021/09/05 04:32:24;;;;;;;18.33;12.83;;;;;;;13.88;100.00;101520.75;4993950;28;20228;-79
2021/09/05 04:34:57;;;;;;;17.93;12.73;;;;;;;13.84;100.00;101514.19;4981742;28;20615;-79
2021/09/05 04:37:22;;;;;;;18.60;12.47;;;;;;;13.70;100.00;101524.03;4981684;28;20308;-80
2021/09/05 04:39:48;;;;;;;24.67;12.07;;;;;;;13.47;100.00;101529.97;4982288;28;20196;-79
2021/09/05 04:42:16;;;;;;;18.77;12.80;;;;;;;13.38;100.00;101533.50;5006248;28;20644;-81
2021/09/05 04:44:44;;;;;;;29.60;12.77;;;;;;;13.29;100.00;101531.56;4979274;28;20591;-80
2021/09/05 04:47:10;;;;;;;22.23;12.33;;;;;;;13.38;100.00;101535.44;5007123;28;20251;-79
2021/09/05 04:49:35;;;;;;;30.27;11.80;;;;;;;13.29;100.00;101531.56;4981654;28;20703;-79
2021/09/05 04:52:01;;;;;;;33.97;12.70;;;;;;;13.22;100.00;101531.00;4982665;28;20635;-80
2021/09/05 04:54:27;;;;;;;29.97;12.60;;;;;;;13.32;100.00;101531.06;4968380;28;20262;-78
2021/09/05 04:56:52;;;;;;;20.50;12.40;;;;;;;13.35;100.00;101531.34;4975931;28;20223;-79
2021/09/05 04:59:22;;;;;;;21.63;13.27;;;;;;;13.44;100.00;101539.81;4981778;28;20197;-80
2021/09/05 05:01:50;;;;;;;19.60;13.17;;;;;;;13.67;100.00;101538.22;4968480;28;20241;-78
2021/09/05 05:04:16;;;;;;;18.30;12.67;;;;;;;13.85;100.00;101537.69;4995266;28;20270;-78
2021/09/05 05:06:42;;;;;;;20.20;13.07;;;;;;;13.91;100.00;101542.06;4976170;28;20217;-80
2021/09/05 05:09:11;;;;;;;19.13;12.97;;;;;;;13.88;100.00;101543.44;4979614;28;20225;-78
2021/09/05 05:11:37;;;;;;;23.20;13.23;;;;;;;14.01;100.00;101547.53;4963358;28;20355;-78
2021/09/05 05:14:05;;;;;;;17.60;12.60;;;;;;;14.12;100.00;101558.22;4991242;28;20181;-78
2021/09/05 05:16:33;;;;;;;20.97;12.63;;;;;;;14.08;100.00;101559.03;4978627;28;20229;-79
2021/09/05 05:18:59;;;;;;;15.63;11.43;;;;;;;14.17;100.00;101557.41;4979147;28;20205;-77
2021/09/05 05:21:28;;;;;;;17.57;12.30;;;;;;;14.19;100.00;101560.69;4977861;28;20258;-77
2021/09/05 05:23:57;;;;;;;17.43;11.50;;;;;;;14.25;100.00;101566.69;4977961;28;20616;-79
2021/09/05 05:26:26;;;;;;;17.03;11.17;;;;;;;14.27;100.00;101563.69;4977552;28;20226;-78
2021/09/05 05:28:57;;;;;;;14.87;10.93;;;;;;;14.19;100.00;101569.69;4978422;28;20209;-77
2021/09/05 05:31:25;;;;;;;20.03;11.90;;;;;;;14.19;100.00;101563.41;4961958;28;20240;-78
2021/09/05 05:33:51;;;;;;;15.43;10.87;;;;;;;14.17;100.00;101562.88;4993637;28;20192;-79
2021/09/05 05:36:19;;;;;;;17.93;11.20;;;;;;;14.03;100.00;101567.25;4979122;28;20662;-78
2021/09/05 05:38:44;;;;;;;15.20;12.27;;;;;;;13.98;100.00;101564.47;4995341;28;20216;-78
2021/09/05 05:41:13;;;;;;;14.77;10.67;;;;;;;13.89;100.00;101566.09;4979305;28;20249;-77
2021/09/05 05:43:43;;;;;;;17.40;11.60;;;;;;;13.85;100.00;101563.09;4988269;28;20232;-78
2021/09/05 05:46:13;;;;;;;16.63;11.70;;;;;;;13.79;100.00;101577.03;4996694;28;20221;-80
2021/09/05 05:48:41;;;;;;;16.60;11.40;;;;;;;13.86;100.00;101572.09;4994437;28;20213;-77
2021/09/05 05:51:09;;;;;;;15.63;11.00;;;;;;;13.74;100.00;101571.53;4994781;28;20225;-78
2021/09/05 05:53:35;;;;;;;25.77;12.33;;;;;;;13.51;100.00;101574.75;4997550;28;20248;-76
2021/09/05 05:56:03;;;;;;;21.07;12.30;;;;;;;13.52;100.00;101581.88;4962903;28;20718;-76
2021/09/05 05:58:32;;;;;;;21.53;11.23;;;;;;;13.46;100.00;101572.03;4995608;28;20245;-77
2021/09/05 06:00:59;;;;;;;17.03;11.47;;;;;;;13.42;100.00;101575.53;4996533;28;20707;-77
2021/09/05 06:03:25;;;;;;;16.50;11.03;;;;;;;13.37;100.00;101567.38;4995116;28;20213;-79
2021/09/05 06:05:54;;;;;;;14.83;11.17;;;;;;;13.41;100.00;101573.13;4962481;28;20217;-79
2021/09/05 06:08:20;;;;;;;15.80;12.03;;;;;;;13.42;100.00;101572.81;4995338;28;20741;-78
2021/09/05 06:10:45;;;;;;;15.37;11.03;;;;;;;13.36;100.00;101575.81;4979424;28;20229;-79
2021/09/05 06:13:11;;;;;;;16.27;11.17;;;;;;;13.33;100.00;101577.19;5007489;28;20192;-80
2021/09/05 06:15:39;;;;;;;14.43;11.87;;;;;;;13.34;100.00;101583.44;5001565;28;20221;-82
2021/09/05 06:18:07;;;;;;;19.43;11.30;;;;;;;13.29;100.00;101586.16;4996718;28;20212;-77
2021/09/05 06:20:35;;;;;;;16.97;11.33;;;;;;;13.39;100.00;101586.19;4981238;28;20229;-80
2021/09/05 06:23:00;;;;;;;15.70;11.20;;;;;;;13.30;100.00;101594.06;4976321;28;20201;-76
2021/09/05 06:25:26;;;;;;;17.63;11.60;;;;;;;13.19;100.00;101602.50;4943948;28;20281;-79
2021/09/05 06:27:52;;;;;;;16.20;11.43;;;;;;;13.32;100.00;101596.53;4962228;28;20187;-81
2021/09/05 06:30:17;;;;;;;15.43;11.27;;;;;;;13.48;100.00;101593.59;4960995;28;20221;-80
2021/09/05 06:32:48;;;;;;;14.80;10.73;;;;;;;13.38;100.00;101606.38;4965227;28;20204;-79
2021/09/05 06:35:14;;;;;;;13.03;10.07;;;;;;;13.30;100.00;101609.63;4996707;28;20181;-79
2021/09/05 06:37:39;;;;;;;12.83;10.00;;;;;;;13.46;100.00;101603.97;4997591;28;20229;-79
2021/09/05 06:40:05;;;;;;;14.00;9.77;;;;;;;13.57;100.00;101606.47;4994738;28;20212;-79
2021/09/05 06:42:33;;;;;;;12.97;10.33;;;;;;;13.75;100.00;101610.59;4991075;28;20193;-80
2021/09/05 06:45:01;;;;;;;11.63;9.27;;;;;;;13.86;100.00;101607.59;4989763;28;20216;-78
2021/09/05 06:47:31;;;;;;;13.67;10.53;;;;;;;13.85;100.00;101603.25;4979911;28;20258;-77
2021/09/05 06:50:02;;;;;;;13.30;10.37;;;;;;;13.78;100.00;101597.22;4963433;28;20217;-80
2021/09/05 06:52:27;;;;;;;14.70;10.13;;;;;;;13.97;100.00;101606.53;4974330;28;20593;-76
2021/09/05 06:54:53;;;;;;;13.60;10.20;;;;;;;13.97;100.00;101606.53;4968227;28;20179;-77
2021/09/05 06:57:21;;;;;;;12.63;9.63;;;;;;;13.81;100.00;101613.06;5000192;28;20228;-74
2021/09/05 06:59:50;;;;;;;12.07;9.50;;;;;;;13.76;100.00;101618.53;4998254;28;20206;-79
2021/09/05 07:02:17;;;;;;;13.10;10.37;;;;;;;13.85;100.00;101616.91;4995321;28;20731;-77
2021/09/05 07:04:43;;;;;;;11.60;9.33;;;;;;;13.84;100.00;101613.38;4985723;28;20185;-76
2021/09/05 07:07:14;;;;;;;13.10;10.10;;;;;;;13.63;100.00;101605.38;5011009;28;20221;-82
2021/09/05 07:09:42;;;;;;;12.40;9.50;;;;;;;13.76;100.00;101618.53;5003212;28;20226;-77
2021/09/05 07:12:10;;;;;;;10.40;9.30;;;;;;;13.58;100.00;101607.28;5004086;28;20749;-75
2021/09/05 07:14:36;;;;;;;12.07;9.30;;;;;;;13.48;100.00;101616.25;5001237;28;20232;-79
2021/09/05 07:17:05;;;;;;;11.53;9.33;;;;;;;13.77;100.00;101617.41;4976204;28;20221;-79
2021/09/05 07:19:33;;;;;;;9.93;8.60;;;;;;;13.86;100.00;101604.88;4982446;28;20231;-76
2021/09/05 07:22:01;;;;;;;12.17;9.07;;;;;;;13.78;100.00;101613.59;5011424;28;20315;-80
2021/09/05 07:24:27;;;;;;;12.87;9.57;;;;;;;13.87;100.00;101617.44;4987875;28;20785;-76
2021/09/05 07:26:55;;;;;;;12.53;9.00;;;;;;;13.78;100.00;101619.06;4977934;28;20218;-80
2021/09/05 07:29:21;;;;;;;10.83;8.90;;;;;;;13.59;100.00;101625.31;4981242;28;20197;-80
2021/09/05 07:31:47;;;;;;;11.37;8.37;;;;;;;13.56;100.00;101617.66;4997408;28;20225;-79
2021/09/05 07:34:13;;;;;;;10.17;8.30;;;;;;;13.56;100.00;101618.47;4993919;28;20178;-77
2021/09/05 07:36:40;;;;;;;8.90;8.07;;;;;;;13.45;100.00;101628.81;4962487;28;20226;-78
2021/09/05 07:39:09;;;;;;;9.47;8.20;;;;;;;13.53;100.00;101627.19;4981905;28;20200;-72
2021/09/05 07:41:35;;;;;;;11.60;8.73;;;;;;;13.39;100.00;101630.69;4981418;28;20225;-80
2021/09/05 07:44:00;;;;;;;11.20;8.50;;;;;;;13.52;100.00;101630.19;4997104;28;20195;-80
2021/09/05 07:46:32;;;;;;;10.27;8.77;;;;;;;13.74;100.00;101622.63;4970319;28;20229;-78
2021/09/05 07:48:58;;;;;;;10.50;8.73;;;;;;;14.16;100.00;101624.09;4972603;28;20224;-78
2021/09/05 07:51:24;;;;;;;9.93;8.67;;;;;;;14.15;100.00;101626.00;5005325;28;20230;-79
2021/09/05 07:53:55;;;;;;;9.43;8.30;;;;;;;13.87;100.00;101633.84;4969380;28;20202;-76
2021/09/05 07:56:21;;;;;;;10.00;8.30;;;;;;;13.81;100.00;101624.00;4970055;28;20276;-79
2021/09/05 07:58:49;;;;;;;10.47;8.37;;;;;;;13.72;100.00;101625.63;4983020;28;20190;-75
2021/09/05 08:01:15;;;;;;;9.77;7.73;;;;;;;13.69;100.00;101625.31;4983113;28;20672;-82
2021/09/05 08:03:41;;;;;;;11.53;8.03;;;;;;;13.82;100.00;101622.91;5000107;28;20256;-78
2021/09/05 08:06:10;;;;;;;9.50;8.10;;;;;;;14.20;100.00;101633.38;4963829;28;20254;-79
2021/09/05 08:08:36;;;;;;;8.57;7.20;;;;;;;14.67;100.00;101633.66;4940707;28;20590;-77
2021/09/05 08:11:04;;;;;;;9.87;7.37;;;;;;;14.68;100.00;101623.53;4975928;28;20325;-79
2021/09/05 08:13:30;;;;;;;9.37;7.43;;;;;;;15.10;100.00;101628.34;4985452;28;20210;-77
2021/09/05 08:16:02;;;;;;;8.60;7.23;;;;;;;15.38;100.00;101629.66;4995852;28;20222;-76
2021/09/05 08:18:33;;;;;;;8.23;6.73;;;;;;;14.89;100.00;101630.59;4980007;28;20198;-77
2021/09/05 08:20:59;;;;;;;8.03;7.00;;;;;;;14.86;100.00;101631.16;4959454;28;20707;-80
2021/09/05 08:23:24;;;;;;;8.90;6.57;;;;;;;15.03;100.00;101636.03;4975348;28;20194;-79
2021/09/05 08:25:52;;;;;;;8.27;6.50;;;;;;;15.55;100.00;101630.97;4971581;28;20225;-79
2021/09/05 08:28:20;;;;;;;7.70;6.83;;;;;;;15.51;100.00;101636.19;4963715;28;20210;-76
2021/09/05 08:30:47;;;;;;;7.07;6.33;;;;;;;15.32;100.00;101639.81;4991742;28;20231;-76
2021/09/05 08:33:18;;;;;;;7.33;6.23;;;;;;;15.60;100.00;101644.63;4959961;28;20189;-75
2021/09/05 08:35:47;;;;;;;6.60;5.90;;;;;;;15.87;100.00;101643.94;4977124;28;20292;-79
2021/09/05 08:38:15;;;;;;;8.43;6.37;;;;;;;15.60;100.00;101652.84;4978977;28;20205;-79
2021/09/05 08:40:43;;;;;;;7.33;6.33;;;;;;;15.29;100.00;101651.34;4975173;28;20226;-72
2021/09/05 08:43:09;;;;;;;7.40;6.00;;;;;;;15.38;100.00;101648.84;4982222;28;20659;-78
2021/09/05 08:45:35;;;;;;;9.43;6.53;;;;;;;15.34;100.00;101656.78;5000531;28;20713;-80
2021/09/05 08:48:05;;;;;;;8.13;6.50;;;;;;;15.35;100.00;101655.69;5002088;28;20194;-80
2021/09/05 08:50:33;;;;;;;8.90;6.97;;;;;;;15.69;100.00;101656.66;4967772;28;20678;-80
2021/09/05 08:52:59;;;;;;;7.50;6.43;;;;;;;16.11;100.00;101664.06;4973530;28;20554;-78
2021/09/05 08:55:28;;;;;;;6.93;6.20;;;;;;;15.91;100.00;101661.44;4966395;28;20270;-78
2021/09/05 08:57:56;;;;;;;7.68;6.57;;;;;;;15.92;100.00;101663.09;4989467;28;20194;-75
2021/09/05 09:00:24;;;;;;;7.13;6.20;;;;;;;16.01;100.00;101669.63;4978077;28;20272;-77
2021/09/05 09:02:52;;;;;;;8.10;6.50;;;;;;;15.87;100.00;101671.34;4942767;28;20178;-75
2021/09/05 09:05:38;;;;;;;9.50;6.50;;;;;;;15.97;100.00;101664.97;4983836;28;20200;-78
2021/09/05 09:08:08;;;;;;;7.38;6.07;;;;;;;16.26;100.00;101666.75;4960139;28;20622;-76
2021/09/05 09:11:01;;;;;;;7.40;5.88;;;;;;;16.70;100.00;101666.41;4974156;28;20228;-76
2021/09/05 09:13:37;;;;;;;6.82;5.88;;;;;;;16.68;100.00;101673.28;4982835;28;20178;-77
2021/09/05 09:16:10;;;;;;;8.68;5.97;;;;;;;16.83;100.00;101664.91;4970776;28;20237;-75
2021/09/05 09:18:42;;;;;;;8.25;5.72;;;;;;;17.16;100.00;101667.59;4981837;28;20212;-77
2021/09/05 09:21:14;;;;;;;9.20;5.70;;;;;;;17.20;100.00;101654.97;4982945;28;20655;-75
2021/09/05 09:23:40;;;;;;;7.80;6.15;;;;;;;17.18;100.00;101657.16;4978056;28;20247;-78
2021/09/05 09:26:07;;;;;;;7.93;6.03;;;;;;;17.28;100.00;101668.88;4958393;28;20214;-77
2021/09/05 09:28:40;;;;;;;7.13;5.80;;;;;;;17.32;100.00;101663.59;4942139;28;20209;-75
2021/09/05 09:31:25;;;;;;;8.77;5.70;;;;;;;17.41;100.00;101651.69;4964456;28;20770;-75
2021/09/05 09:33:55;;;;;;;5.22;4.65;;;;;;;17.62;100.00;101656.66;4993823;28;20185;-75
2021/09/05 09:36:22;;;;;;;6.88;5.50;;;;;;;17.55;100.00;101658.94;4995931;28;20229;-75
2021/09/05 09:38:56;;;;;;;7.32;5.80;;;;;;;17.65;100.00;101664.28;4988561;28;20189;-74
2021/09/05 09:41:21;;;;;;;7.40;5.10;;;;;;;17.84;100.00;101660.47;4992193;28;20222;-74
2021/09/05 09:43:52;;;;;;;6.15;4.93;;;;;;;17.59;100.00;101656.41;5030135;28;20304;-74
2021/09/05 09:46:22;;;;;;;5.00;4.50;;;;;;;17.97;100.00;101650.69;5006474;28;20262;-76
2021/09/05 09:48:48;;;;;;;5.47;4.68;;;;;;;18.18;100.00;101656.41;4953580;28;20263;-75
2021/09/05 09:51:19;;;;;;;6.93;5.30;;;;;;;18.36;100.00;101655.59;4966372;28;20226;-74
2021/09/05 09:53:44;;;;;;;6.90;4.32;;;;;;;18.64;100.00;101652.66;5006706;28;20201;-76
2021/09/05 09:56:11;;;;;;;4.60;3.90;;;;;;;18.60;100.00;101651.59;4985051;28;20296;-75
2021/09/05 09:58:39;;;;;;;9.45;4.93;;;;;;;18.46;100.00;101654.63;5008871;28;20702;-76
2021/09/05 10:01:05;;;;;;;5.53;4.20;;;;;;;18.79;100.00;101655.16;4967838;28;20280;-78
2021/09/05 10:03:31;;;;;;;4.82;4.10;;;;;;;19.02;100.00;101655.03;4955824;28;20194;-75
2021/09/05 10:06:00;;;;;;;4.97;4.47;;;;;;;18.99;100.00;101650.16;4976569;28;20221;-74
2021/09/05 10:08:26;;;;;;;6.05;4.28;;;;;;;18.45;100.00;101651.06;4966227;28;20588;-76
2021/09/05 10:10:52;;;;;;;4.60;3.55;;;;;;;18.99;100.00;101649.31;5002234;28;20223;-75
2021/09/05 10:13:20;;;;;;;5.13;3.72;;;;;;;19.47;100.00;101662.44;4965122;28;20186;-75
2021/09/05 10:15:45;;;;;;;4.80;4.00;;;;;;;19.47;100.00;101648.66;4995656;28;20291;-74
2021/09/05 10:18:11;;;;;;;5.57;4.05;;;;;;;19.54;100.00;101646.28;4994441;28;20881;-73
2021/09/05 10:20:41;;;;;;;5.15;3.90;;;;;;;19.83;100.00;101651.19;4960491;28;20221;-75
2021/09/05 10:23:07;;;;;;;4.43;4.03;;;;;;;20.12;100.00;101643.38;4976617;28;21002;-74
2021/09/05 10:25:32;;;;;;;3.58;3.22;;;;;;;20.36;100.00;101649.41;4991977;28;20217;-74
2021/09/05 10:27:59;;;;;;;5.75;3.60;;;;;;;20.35;100.00;101637.56;4976455;28;20182;-76
2021/09/05 10:30:25;;;;;;;4.75;3.38;;;;;;;20.62;98.18;101640.19;4959270;28;20240;-75
2021/09/05 10:32:57;;;;;;;4.00;3.50;;;;;;;20.50;96.97;101646.28;4987010;28;20680;-77
2021/09/05 10:35:25;;;;;;;8.45;3.47;;;;;;;20.09;98.44;101652.25;4967158;28;20689;-76
2021/09/05 10:38:18;;;;;;;4.07;3.53;;;;;;;19.51;97.10;101642.22;4994826;28;20185;-76
2021/09/05 10:40:56;;;;;;;6.15;4.03;;;;;;;20.03;97.72;101639.69;5002358;28;20217;-76
2021/09/05 10:43:22;;;;;;;5.63;3.30;;;;;;;20.69;96.09;101640.59;4969019;28;20204;-75
2021/09/05 10:45:50;;;;;;;4.20;3.40;;;;;;;20.78;89.58;101634.00;5011153;28;20685;-75
2021/09/05 10:48:38;;;;;;;4.75;3.35;;;;;;;20.92;89.47;101630.03;4962546;28;20202;-78
2021/09/05 10:51:27;;;;;;;4.53;3.28;;;;;;;20.65;88.24;101637.66;4972992;28;20268;-76
2021/09/05 10:53:56;;;;;;;4.45;2.95;;;;;;;21.11;88.60;101638.09;4991625;28;20190;-77
2021/09/05 10:56:25;;;;;;;3.33;2.97;;;;;;;21.08;84.24;101635.94;4991483;28;20226;-78
2021/09/05 10:58:55;;;;;;;5.78;3.33;;;;;;;21.20;85.17;101631.47;4965922;28;20296;-77
2021/09/05 11:01:23;;;;;;;4.70;3.38;;;;;;;21.42;85.14;101637.78;4954676;28;20230;-75
2021/09/05 11:06:45;;;;;;;3.70;3.25;;;;;;;20.73;85.02;101623.09;4997278;28;20279;-75
2021/09/05 11:09:27;;;;;;;5.43;3.67;;;;;;;20.62;84.72;101630.00;5002356;28;20248;-78
2021/09/05 11:12:03;;;;;;;4.75;3.22;;;;;;;21.06;83.73;101627.16;4997448;28;20236;-75
2021/09/05 11:14:57;;;;;;;3.47;3.17;;;;;;;21.41;85.94;101619.56;5002991;28;20184;-75
2021/09/05 11:17:26;;;;;;;4.50;3.10;;;;;;;21.69;82.05;101626.47;4995335;28;20226;-76
2021/09/05 11:20:02;;;;;;;3.67;3.30;;;;;;;21.12;85.01;101625.91;4996972;28;20572;-78
2021/09/05 11:22:32;;;;;;;4.72;3.85;;;;;;;21.10;85.91;101628.16;5004523;28;20213;-75
2021/09/05 11:25:08;;;;;;;4.45;3.38;;;;;;;21.26;82.77;101627.41;5002010;28;20189;-76
2021/09/05 11:27:39;;;;;;;4.40;3.30;;;;;;;21.81;81.44;101619.19;5005335;28;20214;-74
2021/09/05 11:30:07;;;;;;;4.50;3.22;;;;;;;22.29;80.61;101612.41;4974845;28;20210;-73
2021/09/05 11:32:35;;;;;;;4.05;3.10;;;;;;;22.36;76.13;101615.47;4960567;28;20178;-75
2021/09/05 11:35:01;;;;;;;4.80;3.17;;;;;;;22.21;73.82;101613.22;4971366;28;20660;-75